sensor_id;sensor_type;location;lat;lon;timestamp;P1;durP1;ratioP1;P2;durP2;ratioP2
19171;SDS011;9718;52.200;21.052;2022-12-05T00:01:39;21.20;;;11.40;;
19171;SDS011;9718;52.200;21.052;2022-12-05T00:04:11;20.20;;;10.47;;
19171;SDS011;9718;52.200;21.052;2022-12-05T00:06:40;20.07;;;10.03;;
19171;SDS011;9718;52.200;21.052;2022-12-05T00:09:09;22.07;;;10.27;;
19171;SDS011;9718;52.200;21.052;2022-12-05T00:11:37;19.50;;;10.47;;
19171;SDS011;9718;52.200;21.052;2022-12-05T00:14:08;19.07;;;9.90;;
19171;SDS011;9718;52.200;21.052;2022-12-05T00:16:40;20.33;;;10.57;;
19171;SDS011;9718;52.200;21.052;2022-12-05T00:19:11;19.83;;;9.70;;
19171;SDS011;9718;52.200;21.052;2022-12-05T00:21:41;20.87;;;10.53;;
19171;SDS011;9718;52.200;21.052;2022-12-05T00:24:11;22.77;;;10.90;;
19171;SDS011;9718;52.200;21.052;2022-12-05T00:26:39;21.63;;;11.33;;
19171;SDS011;9718;52.200;21.052;2022-12-05T00:29:07;18.47;;;10.30;;
19171;SDS011;9718;52.200;21.052;2022-12-05T00:31:35;23.53;;;12.20;;
19171;SDS011;9718;52.200;21.052;2022-12-05T00:34:02;25.83;;;11.83;;
19171;SDS011;9718;52.200;21.052;2022-12-05T00:36:31;23.60;;;10.60;;
19171;SDS011;9718;52.200;21.052;2022-12-05T00:39:03;23.33;;;11.43;;
19171;SDS011;9718;52.200;21.052;2022-12-05T00:41:33;23.87;;;10.27;;
19171;SDS011;9718;52.200;21.052;2022-12-05T00:44:01;19.10;;;10.87;;
19171;SDS011;9718;52.200;21.052;2022-12-05T00:46:31;20.73;;;10.07;;
19171;SDS011;9718;52.200;21.052;2022-12-05T00:49:03;24.33;;;12.07;;
19171;SDS011;9718;52.200;21.052;2022-12-05T00:51:37;20.47;;;11.40;;
19171;SDS011;9718;52.200;21.052;2022-12-05T00:54:08;19.77;;;9.73;;
19171;SDS011;9718;52.200;21.052;2022-12-05T00:56:39;20.80;;;10.93;;
19171;SDS011;9718;52.200;21.052;2022-12-05T00:59:16;24.20;;;11.33;;
19171;SDS011;9718;52.200;21.052;2022-12-05T01:01:45;22.43;;;10.50;;
19171;SDS011;9718;52.200;21.052;2022-12-05T01:04:15;23.00;;;11.93;;
19171;SDS011;9718;52.200;21.052;2022-12-05T01:06:53;21.40;;;10.17;;
19171;SDS011;9718;52.200;21.052;2022-12-05T01:09:22;23.00;;;11.83;;
19171;SDS011;9718;52.200;21.052;2022-12-05T01:11:50;25.67;;;11.30;;
19171;SDS011;9718;52.200;21.052;2022-12-05T01:14:21;19.00;;;9.70;;
19171;SDS011;9718;52.200;21.052;2022-12-05T01:16:52;24.77;;;11.43;;
19171;SDS011;9718;52.200;21.052;2022-12-05T01:19:22;24.93;;;11.93;;
19171;SDS011;9718;52.200;21.052;2022-12-05T01:21:55;26.63;;;11.77;;
19171;SDS011;9718;52.200;21.052;2022-12-05T01:24:25;21.97;;;11.43;;
19171;SDS011;9718;52.200;21.052;2022-12-05T01:26:54;21.97;;;12.47;;
19171;SDS011;9718;52.200;21.052;2022-12-05T01:29:23;20.13;;;10.73;;
19171;SDS011;9718;52.200;21.052;2022-12-05T01:31:54;21.60;;;10.83;;
19171;SDS011;9718;52.200;21.052;2022-12-05T01:34:23;25.13;;;12.27;;
19171;SDS011;9718;52.200;21.052;2022-12-05T01:36:51;25.63;;;11.63;;
19171;SDS011;9718;52.200;21.052;2022-12-05T01:39:19;25.03;;;11.73;;
19171;SDS011;9718;52.200;21.052;2022-12-05T01:41:47;23.17;;;12.23;;
19171;SDS011;9718;52.200;21.052;2022-12-05T01:46:44;23.10;;;11.77;;
19171;SDS011;9718;52.200;21.052;2022-12-05T01:49:23;22.33;;;11.50;;
19171;SDS011;9718;52.200;21.052;2022-12-05T01:51:57;24.00;;;12.47;;
19171;SDS011;9718;52.200;21.052;2022-12-05T01:54:40;24.60;;;12.07;;
19171;SDS011;9718;52.200;21.052;2022-12-05T01:57:10;27.73;;;12.53;;
19171;SDS011;9718;52.200;21.052;2022-12-05T01:59:40;25.87;;;13.03;;
19171;SDS011;9718;52.200;21.052;2022-12-05T02:02:12;24.77;;;12.33;;
19171;SDS011;9718;52.200;21.052;2022-12-05T02:04:45;24.93;;;11.77;;
19171;SDS011;9718;52.200;21.052;2022-12-05T02:07:26;26.60;;;12.67;;
19171;SDS011;9718;52.200;21.052;2022-12-05T02:09:55;25.20;;;11.40;;
19171;SDS011;9718;52.200;21.052;2022-12-05T02:12:24;26.10;;;11.93;;
19171;SDS011;9718;52.200;21.052;2022-12-05T02:17:30;21.43;;;11.10;;
19171;SDS011;9718;52.200;21.052;2022-12-05T02:20:31;26.73;;;14.00;;
19171;SDS011;9718;52.200;21.052;2022-12-05T02:26:16;18.77;;;9.40;;
19171;SDS011;9718;52.200;21.052;2022-12-05T02:34:20;20.57;;;10.57;;
19171;SDS011;9718;52.200;21.052;2022-12-05T02:43:04;18.50;;;10.10;;
19171;SDS011;9718;52.200;21.052;2022-12-05T02:45:47;19.97;;;10.30;;
19171;SDS011;9718;52.200;21.052;2022-12-05T02:48:20;19.70;;;10.07;;
19171;SDS011;9718;52.200;21.052;2022-12-05T02:50:48;17.53;;;9.50;;
19171;SDS011;9718;52.200;21.052;2022-12-05T02:53:20;22.23;;;10.53;;
19171;SDS011;9718;52.200;21.052;2022-12-05T02:55:51;16.67;;;8.80;;
19171;SDS011;9718;52.200;21.052;2022-12-05T02:58:22;21.17;;;10.97;;
19171;SDS011;9718;52.200;21.052;2022-12-05T03:00:54;21.40;;;8.80;;
19171;SDS011;9718;52.200;21.052;2022-12-05T03:03:24;18.77;;;9.90;;
19171;SDS011;9718;52.200;21.052;2022-12-05T03:05:55;19.57;;;10.60;;
19171;SDS011;9718;52.200;21.052;2022-12-05T03:08:38;17.97;;;9.00;;
19171;SDS011;9718;52.200;21.052;2022-12-05T03:11:14;18.07;;;8.77;;
19171;SDS011;9718;52.200;21.052;2022-12-05T03:13:44;18.60;;;9.60;;
19171;SDS011;9718;52.200;21.052;2022-12-05T03:16:18;15.83;;;8.73;;
19171;SDS011;9718;52.200;21.052;2022-12-05T03:18:54;20.60;;;9.07;;
19171;SDS011;9718;52.200;21.052;2022-12-05T03:21:29;20.20;;;9.80;;
19171;SDS011;9718;52.200;21.052;2022-12-05T03:24:03;19.90;;;8.40;;
19171;SDS011;9718;52.200;21.052;2022-12-05T03:29:50;18.63;;;9.20;;
19171;SDS011;9718;52.200;21.052;2022-12-05T03:43:58;19.60;;;10.23;;
19171;SDS011;9718;52.200;21.052;2022-12-05T03:46:47;17.13;;;9.20;;
19171;SDS011;9718;52.200;21.052;2022-12-05T03:54:33;18.47;;;8.93;;
19171;SDS011;9718;52.200;21.052;2022-12-05T03:57:03;22.37;;;10.33;;
19171;SDS011;9718;52.200;21.052;2022-12-05T03:59:36;20.50;;;9.60;;
19171;SDS011;9718;52.200;21.052;2022-12-05T04:02:06;15.20;;;7.93;;
19171;SDS011;9718;52.200;21.052;2022-12-05T04:04:40;17.17;;;9.47;;
19171;SDS011;9718;52.200;21.052;2022-12-05T04:07:18;19.17;;;8.93;;
19171;SDS011;9718;52.200;21.052;2022-12-05T04:10:02;18.27;;;9.10;;
19171;SDS011;9718;52.200;21.052;2022-12-05T04:12:35;17.40;;;9.73;;
19171;SDS011;9718;52.200;21.052;2022-12-05T04:15:07;17.20;;;9.13;;
19171;SDS011;9718;52.200;21.052;2022-12-05T04:18:19;17.47;;;8.63;;
19171;SDS011;9718;52.200;21.052;2022-12-05T04:20:50;17.90;;;10.03;;
19171;SDS011;9718;52.200;21.052;2022-12-05T04:23:38;17.07;;;8.73;;
19171;SDS011;9718;52.200;21.052;2022-12-05T04:26:18;17.63;;;10.03;;
19171;SDS011;9718;52.200;21.052;2022-12-05T04:28:57;24.00;;;11.97;;
19171;SDS011;9718;52.200;21.052;2022-12-05T04:31:41;24.87;;;12.57;;
19171;SDS011;9718;52.200;21.052;2022-12-05T04:34:12;20.67;;;9.17;;
19171;SDS011;9718;52.200;21.052;2022-12-05T04:36:44;21.03;;;9.93;;
19171;SDS011;9718;52.200;21.052;2022-12-05T04:41:55;22.37;;;10.03;;
19171;SDS011;9718;52.200;21.052;2022-12-05T04:44:29;17.40;;;8.77;;
19171;SDS011;9718;52.200;21.052;2022-12-05T04:47:02;17.87;;;9.70;;
19171;SDS011;9718;52.200;21.052;2022-12-05T04:49:31;22.93;;;10.50;;
19171;SDS011;9718;52.200;21.052;2022-12-05T04:52:01;18.67;;;9.53;;
19171;SDS011;9718;52.200;21.052;2022-12-05T04:54:52;20.40;;;9.60;;
19171;SDS011;9718;52.200;21.052;2022-12-05T04:57:41;21.13;;;9.20;;
19171;SDS011;9718;52.200;21.052;2022-12-05T05:00:16;17.97;;;9.83;;
19171;SDS011;9718;52.200;21.052;2022-12-05T05:02:49;20.20;;;9.27;;
19171;SDS011;9718;52.200;21.052;2022-12-05T05:05:23;15.87;;;8.33;;
19171;SDS011;9718;52.200;21.052;2022-12-05T05:07:52;16.17;;;8.57;;
19171;SDS011;9718;52.200;21.052;2022-12-05T05:10:31;17.70;;;8.57;;
19171;SDS011;9718;52.200;21.052;2022-12-05T05:13:02;16.73;;;9.40;;
19171;SDS011;9718;52.200;21.052;2022-12-05T05:15:30;16.23;;;8.67;;
19171;SDS011;9718;52.200;21.052;2022-12-05T05:17:57;19.20;;;9.87;;
19171;SDS011;9718;52.200;21.052;2022-12-05T05:20:24;14.97;;;8.90;;
19171;SDS011;9718;52.200;21.052;2022-12-05T05:22:56;18.03;;;9.67;;
19171;SDS011;9718;52.200;21.052;2022-12-05T05:25:24;19.90;;;10.67;;
19171;SDS011;9718;52.200;21.052;2022-12-05T05:27:52;17.33;;;8.83;;
19171;SDS011;9718;52.200;21.052;2022-12-05T05:30:22;16.67;;;8.13;;
19171;SDS011;9718;52.200;21.052;2022-12-05T05:32:50;15.97;;;7.97;;
19171;SDS011;9718;52.200;21.052;2022-12-05T05:35:17;17.43;;;8.63;;
19171;SDS011;9718;52.200;21.052;2022-12-05T05:37:45;19.60;;;9.37;;
19171;SDS011;9718;52.200;21.052;2022-12-05T05:40:13;17.60;;;8.80;;
19171;SDS011;9718;52.200;21.052;2022-12-05T05:42:47;15.10;;;8.03;;
19171;SDS011;9718;52.200;21.052;2022-12-05T05:45:15;15.77;;;7.23;;
19171;SDS011;9718;52.200;21.052;2022-12-05T05:47:43;16.13;;;8.40;;
19171;SDS011;9718;52.200;21.052;2022-12-05T05:50:10;15.50;;;8.40;;
19171;SDS011;9718;52.200;21.052;2022-12-05T05:52:44;13.83;;;8.10;;
19171;SDS011;9718;52.200;21.052;2022-12-05T05:55:12;17.97;;;8.63;;
19171;SDS011;9718;52.200;21.052;2022-12-05T05:57:39;20.83;;;8.43;;
19171;SDS011;9718;52.200;21.052;2022-12-05T06:00:06;17.20;;;8.47;;
19171;SDS011;9718;52.200;21.052;2022-12-05T06:02:34;17.07;;;8.53;;
19171;SDS011;9718;52.200;21.052;2022-12-05T06:05:03;18.27;;;8.57;;
19171;SDS011;9718;52.200;21.052;2022-12-05T06:07:30;19.80;;;10.30;;
19171;SDS011;9718;52.200;21.052;2022-12-05T06:09:58;16.30;;;9.40;;
19171;SDS011;9718;52.200;21.052;2022-12-05T06:12:25;18.37;;;8.43;;
19171;SDS011;9718;52.200;21.052;2022-12-05T06:14:52;17.30;;;9.10;;
19171;SDS011;9718;52.200;21.052;2022-12-05T06:17:19;20.33;;;9.27;;
19171;SDS011;9718;52.200;21.052;2022-12-05T06:19:47;16.87;;;8.90;;
19171;SDS011;9718;52.200;21.052;2022-12-05T06:22:14;16.93;;;8.83;;
19171;SDS011;9718;52.200;21.052;2022-12-05T06:24:41;17.60;;;9.40;;
19171;SDS011;9718;52.200;21.052;2022-12-05T06:27:08;16.10;;;8.40;;
19171;SDS011;9718;52.200;21.052;2022-12-05T06:29:35;19.73;;;10.40;;
19171;SDS011;9718;52.200;21.052;2022-12-05T06:32:02;18.07;;;8.47;;
19171;SDS011;9718;52.200;21.052;2022-12-05T06:34:30;19.47;;;9.80;;
19171;SDS011;9718;52.200;21.052;2022-12-05T06:36:58;18.10;;;9.17;;
19171;SDS011;9718;52.200;21.052;2022-12-05T06:39:26;17.27;;;9.00;;
19171;SDS011;9718;52.200;21.052;2022-12-05T06:41:53;17.57;;;9.53;;
19171;SDS011;9718;52.200;21.052;2022-12-05T06:44:20;19.70;;;10.47;;
19171;SDS011;9718;52.200;21.052;2022-12-05T06:46:47;19.60;;;9.63;;
19171;SDS011;9718;52.200;21.052;2022-12-05T06:49:15;18.93;;;10.33;;
19171;SDS011;9718;52.200;21.052;2022-12-05T06:51:42;19.07;;;10.17;;
19171;SDS011;9718;52.200;21.052;2022-12-05T06:54:13;18.97;;;10.07;;
19171;SDS011;9718;52.200;21.052;2022-12-05T06:56:40;17.50;;;9.73;;
19171;SDS011;9718;52.200;21.052;2022-12-05T06:59:08;22.73;;;10.20;;
19171;SDS011;9718;52.200;21.052;2022-12-05T07:01:36;20.03;;;9.47;;
19171;SDS011;9718;52.200;21.052;2022-12-05T07:04:18;26.07;;;10.03;;
19171;SDS011;9718;52.200;21.052;2022-12-05T07:06:50;16.63;;;9.00;;
19171;SDS011;9718;52.200;21.052;2022-12-05T07:09:19;18.43;;;9.50;;
19171;SDS011;9718;52.200;21.052;2022-12-05T07:11:48;19.13;;;10.20;;
19171;SDS011;9718;52.200;21.052;2022-12-05T07:14:16;17.80;;;8.83;;
19171;SDS011;9718;52.200;21.052;2022-12-05T07:17:04;19.33;;;9.80;;
19171;SDS011;9718;52.200;21.052;2022-12-05T07:19:31;20.63;;;10.50;;
19171;SDS011;9718;52.200;21.052;2022-12-05T07:21:58;22.30;;;10.93;;
19171;SDS011;9718;52.200;21.052;2022-12-05T07:24:27;19.00;;;11.00;;
19171;SDS011;9718;52.200;21.052;2022-12-05T07:26:54;19.77;;;10.77;;
19171;SDS011;9718;52.200;21.052;2022-12-05T07:29:21;22.13;;;10.73;;
19171;SDS011;9718;52.200;21.052;2022-12-05T07:31:48;17.57;;;9.90;;
19171;SDS011;9718;52.200;21.052;2022-12-05T07:34:15;18.93;;;9.47;;
19171;SDS011;9718;52.200;21.052;2022-12-05T07:36:42;18.63;;;10.57;;
19171;SDS011;9718;52.200;21.052;2022-12-05T07:39:10;18.00;;;10.37;;
19171;SDS011;9718;52.200;21.052;2022-12-05T07:41:37;19.13;;;10.33;;
19171;SDS011;9718;52.200;21.052;2022-12-05T07:44:04;21.77;;;11.00;;
19171;SDS011;9718;52.200;21.052;2022-12-05T07:46:31;20.13;;;10.17;;
19171;SDS011;9718;52.200;21.052;2022-12-05T07:48:58;23.87;;;11.00;;
19171;SDS011;9718;52.200;21.052;2022-12-05T07:51:25;22.83;;;11.03;;
19171;SDS011;9718;52.200;21.052;2022-12-05T07:53:52;19.77;;;9.20;;
19171;SDS011;9718;52.200;21.052;2022-12-05T07:56:19;19.20;;;10.20;;
19171;SDS011;9718;52.200;21.052;2022-12-05T07:58:47;19.77;;;9.17;;
19171;SDS011;9718;52.200;21.052;2022-12-05T08:01:16;20.13;;;10.03;;
19171;SDS011;9718;52.200;21.052;2022-12-05T08:03:48;18.83;;;9.43;;
19171;SDS011;9718;52.200;21.052;2022-12-05T08:06:18;19.27;;;10.43;;
19171;SDS011;9718;52.200;21.052;2022-12-05T08:08:47;18.47;;;9.47;;
19171;SDS011;9718;52.200;21.052;2022-12-05T08:11:19;17.43;;;8.83;;
19171;SDS011;9718;52.200;21.052;2022-12-05T08:13:48;21.27;;;9.87;;
19171;SDS011;9718;52.200;21.052;2022-12-05T08:16:20;19.17;;;9.37;;
19171;SDS011;9718;52.200;21.052;2022-12-05T08:18:55;19.73;;;9.63;;
19171;SDS011;9718;52.200;21.052;2022-12-05T08:21:23;24.67;;;10.63;;
19171;SDS011;9718;52.200;21.052;2022-12-05T08:23:51;20.17;;;10.00;;
19171;SDS011;9718;52.200;21.052;2022-12-05T08:26:20;20.20;;;9.87;;
19171;SDS011;9718;52.200;21.052;2022-12-05T08:31:28;21.17;;;10.57;;
19171;SDS011;9718;52.200;21.052;2022-12-05T08:33:57;20.97;;;10.30;;
19171;SDS011;9718;52.200;21.052;2022-12-05T08:36:26;22.83;;;11.07;;
19171;SDS011;9718;52.200;21.052;2022-12-05T08:38:59;20.87;;;9.47;;
19171;SDS011;9718;52.200;21.052;2022-12-05T08:41:28;20.70;;;9.70;;
19171;SDS011;9718;52.200;21.052;2022-12-05T08:43:57;20.17;;;9.87;;
19171;SDS011;9718;52.200;21.052;2022-12-05T08:46:29;19.03;;;10.10;;
19171;SDS011;9718;52.200;21.052;2022-12-05T08:48:56;20.67;;;9.70;;
19171;SDS011;9718;52.200;21.052;2022-12-05T08:51:24;21.50;;;10.57;;
19171;SDS011;9718;52.200;21.052;2022-12-05T08:53:51;21.10;;;9.97;;
19171;SDS011;9718;52.200;21.052;2022-12-05T08:56:19;22.63;;;10.53;;
19171;SDS011;9718;52.200;21.052;2022-12-05T08:58:52;19.20;;;9.97;;
19171;SDS011;9718;52.200;21.052;2022-12-05T09:01:26;22.80;;;10.47;;
19171;SDS011;9718;52.200;21.052;2022-12-05T09:03:58;20.63;;;10.00;;
19171;SDS011;9718;52.200;21.052;2022-12-05T09:06:26;21.13;;;10.67;;
19171;SDS011;9718;52.200;21.052;2022-12-05T09:08:56;23.30;;;10.03;;
19171;SDS011;9718;52.200;21.052;2022-12-05T09:11:27;21.27;;;10.70;;
19171;SDS011;9718;52.200;21.052;2022-12-05T09:13:57;22.97;;;10.13;;
19171;SDS011;9718;52.200;21.052;2022-12-05T09:16:27;21.80;;;11.87;;
19171;SDS011;9718;52.200;21.052;2022-12-05T09:19:11;24.60;;;10.37;;
19171;SDS011;9718;52.200;21.052;2022-12-05T09:21:40;19.37;;;10.63;;
19171;SDS011;9718;52.200;21.052;2022-12-05T09:24:09;22.87;;;10.73;;
19171;SDS011;9718;52.200;21.052;2022-12-05T09:26:37;20.50;;;8.70;;
19171;SDS011;9718;52.200;21.052;2022-12-05T09:29:06;20.00;;;9.83;;
19171;SDS011;9718;52.200;21.052;2022-12-05T09:31:41;17.73;;;9.43;;
19171;SDS011;9718;52.200;21.052;2022-12-05T09:34:08;26.93;;;10.63;;
19171;SDS011;9718;52.200;21.052;2022-12-05T09:36:36;20.30;;;9.63;;
19171;SDS011;9718;52.200;21.052;2022-12-05T09:39:04;19.37;;;9.87;;
19171;SDS011;9718;52.200;21.052;2022-12-05T09:49:50;20.50;;;10.83;;
19171;SDS011;9718;52.200;21.052;2022-12-05T09:52:26;22.87;;;10.57;;
19171;SDS011;9718;52.200;21.052;2022-12-05T09:55:14;27.83;;;13.73;;
19171;SDS011;9718;52.200;21.052;2022-12-05T09:58:04;20.23;;;9.70;;
19171;SDS011;9718;52.200;21.052;2022-12-05T10:00:32;26.07;;;9.90;;
19171;SDS011;9718;52.200;21.052;2022-12-05T10:16:46;24.53;;;11.47;;
19171;SDS011;9718;52.200;21.052;2022-12-05T10:19:17;23.13;;;10.43;;
19171;SDS011;9718;52.200;21.052;2022-12-05T10:22:18;22.20;;;10.60;;
19171;SDS011;9718;52.200;21.052;2022-12-05T10:24:53;23.23;;;11.90;;
19171;SDS011;9718;52.200;21.052;2022-12-05T10:27:34;20.40;;;10.20;;
19171;SDS011;9718;52.200;21.052;2022-12-05T10:30:12;25.20;;;11.27;;
19171;SDS011;9718;52.200;21.052;2022-12-05T10:35:20;22.50;;;11.50;;
19171;SDS011;9718;52.200;21.052;2022-12-05T10:37:59;25.70;;;12.70;;
19171;SDS011;9718;52.200;21.052;2022-12-05T10:40:33;22.23;;;11.43;;
19171;SDS011;9718;52.200;21.052;2022-12-05T10:43:04;25.77;;;12.57;;
19171;SDS011;9718;52.200;21.052;2022-12-05T10:45:34;29.60;;;11.57;;
19171;SDS011;9718;52.200;21.052;2022-12-05T10:48:08;25.37;;;12.67;;
19171;SDS011;9718;52.200;21.052;2022-12-05T10:50:38;26.07;;;12.50;;
19171;SDS011;9718;52.200;21.052;2022-12-05T10:53:10;21.10;;;11.00;;
19171;SDS011;9718;52.200;21.052;2022-12-05T10:55:42;29.67;;;13.67;;
19171;SDS011;9718;52.200;21.052;2022-12-05T10:58:31;25.40;;;11.63;;
19171;SDS011;9718;52.200;21.052;2022-12-05T11:01:05;26.83;;;12.83;;
19171;SDS011;9718;52.200;21.052;2022-12-05T11:03:38;26.23;;;12.10;;
19171;SDS011;9718;52.200;21.052;2022-12-05T11:09:16;25.80;;;12.80;;
19171;SDS011;9718;52.200;21.052;2022-12-05T11:12:05;24.63;;;11.73;;
19171;SDS011;9718;52.200;21.052;2022-12-05T11:17:34;24.67;;;12.40;;
19171;SDS011;9718;52.200;21.052;2022-12-05T11:22:50;24.70;;;10.97;;
19171;SDS011;9718;52.200;21.052;2022-12-05T11:25:28;23.30;;;11.50;;
19171;SDS011;9718;52.200;21.052;2022-12-05T11:33:39;26.73;;;12.77;;
19171;SDS011;9718;52.200;21.052;2022-12-05T11:36:22;31.60;;;12.80;;
19171;SDS011;9718;52.200;21.052;2022-12-05T11:38:56;29.93;;;13.53;;
19171;SDS011;9718;52.200;21.052;2022-12-05T11:41:40;27.50;;;12.80;;
19171;SDS011;9718;52.200;21.052;2022-12-05T11:50:44;21.93;;;10.63;;
19171;SDS011;9718;52.200;21.052;2022-12-05T11:56:28;29.40;;;12.60;;
19171;SDS011;9718;52.200;21.052;2022-12-05T12:22:38;27.50;;;13.13;;
19171;SDS011;9718;52.200;21.052;2022-12-05T12:50:23;28.63;;;12.07;;
19171;SDS011;9718;52.200;21.052;2022-12-05T13:11:20;28.63;;;11.57;;
19171;SDS011;9718;52.200;21.052;2022-12-05T13:14:23;28.40;;;12.50;;
19171;SDS011;9718;52.200;21.052;2022-12-05T13:16:53;26.30;;;12.03;;
19171;SDS011;9718;52.200;21.052;2022-12-05T13:19:44;35.83;;;15.27;;
19171;SDS011;9718;52.200;21.052;2022-12-05T13:22:30;29.70;;;13.17;;
19171;SDS011;9718;52.200;21.052;2022-12-05T13:25:38;29.53;;;13.53;;
19171;SDS011;9718;52.200;21.052;2022-12-05T13:28:08;30.03;;;12.10;;
19171;SDS011;9718;52.200;21.052;2022-12-05T13:31:17;31.13;;;13.53;;
19171;SDS011;9718;52.200;21.052;2022-12-05T13:37:29;30.20;;;13.30;;
19171;SDS011;9718;52.200;21.052;2022-12-05T13:40:54;27.67;;;13.33;;
19171;SDS011;9718;52.200;21.052;2022-12-05T13:44:15;28.67;;;13.10;;
19171;SDS011;9718;52.200;21.052;2022-12-05T13:46:57;30.10;;;13.27;;
19171;SDS011;9718;52.200;21.052;2022-12-05T13:49:48;29.27;;;13.30;;
19171;SDS011;9718;52.200;21.052;2022-12-05T13:56:44;31.13;;;13.13;;
19171;SDS011;9718;52.200;21.052;2022-12-05T14:05:38;29.40;;;13.43;;
19171;SDS011;9718;52.200;21.052;2022-12-05T14:18:50;28.23;;;14.33;;
19171;SDS011;9718;52.200;21.052;2022-12-05T14:21:41;28.73;;;13.73;;
19171;SDS011;9718;52.200;21.052;2022-12-05T14:27:40;28.47;;;12.33;;
19171;SDS011;9718;52.200;21.052;2022-12-05T14:32:48;29.47;;;13.27;;
19171;SDS011;9718;52.200;21.052;2022-12-05T14:35:20;25.30;;;11.90;;
19171;SDS011;9718;52.200;21.052;2022-12-05T14:40:55;29.73;;;13.03;;
19171;SDS011;9718;52.200;21.052;2022-12-05T14:43:36;30.00;;;13.70;;
19171;SDS011;9718;52.200;21.052;2022-12-05T14:46:05;28.43;;;13.10;;
19171;SDS011;9718;52.200;21.052;2022-12-05T14:48:40;27.90;;;12.83;;
19171;SDS011;9718;52.200;21.052;2022-12-05T14:54:05;35.63;;;14.50;;
19171;SDS011;9718;52.200;21.052;2022-12-05T14:56:39;30.00;;;13.70;;
19171;SDS011;9718;52.200;21.052;2022-12-05T15:01:58;37.47;;;15.07;;
19171;SDS011;9718;52.200;21.052;2022-12-05T15:07:37;32.37;;;13.10;;
19171;SDS011;9718;52.200;21.052;2022-12-05T15:12:43;29.27;;;12.87;;
19171;SDS011;9718;52.200;21.052;2022-12-05T15:15:35;33.40;;;14.03;;
19171;SDS011;9718;52.200;21.052;2022-12-05T15:18:19;29.67;;;13.77;;
19171;SDS011;9718;52.200;21.052;2022-12-05T15:21:12;28.50;;;14.97;;
19171;SDS011;9718;52.200;21.052;2022-12-05T15:23:56;36.40;;;14.40;;
19171;SDS011;9718;52.200;21.052;2022-12-05T15:31:56;31.37;;;14.97;;
19171;SDS011;9718;52.200;21.052;2022-12-05T15:34:40;29.63;;;13.83;;
19171;SDS011;9718;52.200;21.052;2022-12-05T15:42:26;34.13;;;14.40;;
19171;SDS011;9718;52.200;21.052;2022-12-05T15:47:49;38.07;;;16.53;;
19171;SDS011;9718;52.200;21.052;2022-12-05T15:52:49;36.37;;;15.93;;
19171;SDS011;9718;52.200;21.052;2022-12-05T15:58:24;38.70;;;16.73;;
19171;SDS011;9718;52.200;21.052;2022-12-05T16:00:56;29.67;;;14.93;;
19171;SDS011;9718;52.200;21.052;2022-12-05T16:03:54;33.17;;;14.37;;
19171;SDS011;9718;52.200;21.052;2022-12-05T16:06:37;37.73;;;16.57;;
19171;SDS011;9718;52.200;21.052;2022-12-05T16:09:17;31.47;;;14.10;;
19171;SDS011;9718;52.200;21.052;2022-12-05T16:11:51;37.03;;;15.03;;
19171;SDS011;9718;52.200;21.052;2022-12-05T16:14:22;32.57;;;14.17;;
19171;SDS011;9718;52.200;21.052;2022-12-05T16:17:15;35.50;;;14.83;;
19171;SDS011;9718;52.200;21.052;2022-12-05T16:19:42;31.30;;;15.47;;
19171;SDS011;9718;52.200;21.052;2022-12-05T16:24:46;37.73;;;16.73;;
19171;SDS011;9718;52.200;21.052;2022-12-05T16:27:21;42.37;;;16.57;;
19171;SDS011;9718;52.200;21.052;2022-12-05T16:32:49;33.83;;;15.17;;
19171;SDS011;9718;52.200;21.052;2022-12-05T16:35:27;34.30;;;15.90;;
19171;SDS011;9718;52.200;21.052;2022-12-05T16:40:31;35.63;;;14.30;;
19171;SDS011;9718;52.200;21.052;2022-12-05T16:43:00;35.97;;;14.70;;
19171;SDS011;9718;52.200;21.052;2022-12-05T16:45:42;33.23;;;14.93;;
19171;SDS011;9718;52.200;21.052;2022-12-05T16:50:46;38.20;;;16.53;;
19171;SDS011;9718;52.200;21.052;2022-12-05T16:53:22;34.07;;;15.60;;
19171;SDS011;9718;52.200;21.052;2022-12-05T16:55:54;35.67;;;15.10;;
19171;SDS011;9718;52.200;21.052;2022-12-05T16:58:24;31.90;;;15.37;;
19171;SDS011;9718;52.200;21.052;2022-12-05T17:01:01;35.53;;;15.93;;
19171;SDS011;9718;52.200;21.052;2022-12-05T17:03:33;31.97;;;15.70;;
19171;SDS011;9718;52.200;21.052;2022-12-05T17:06:01;35.87;;;15.30;;
19171;SDS011;9718;52.200;21.052;2022-12-05T17:08:29;29.90;;;15.00;;
19171;SDS011;9718;52.200;21.052;2022-12-05T17:10:56;33.47;;;15.87;;
19171;SDS011;9718;52.200;21.052;2022-12-05T17:13:23;32.97;;;16.10;;
19171;SDS011;9718;52.200;21.052;2022-12-05T17:15:51;32.77;;;15.20;;
19171;SDS011;9718;52.200;21.052;2022-12-05T17:18:19;36.97;;;15.63;;
19171;SDS011;9718;52.200;21.052;2022-12-05T17:20:53;34.33;;;15.63;;
19171;SDS011;9718;52.200;21.052;2022-12-05T17:23:22;37.60;;;15.83;;
19171;SDS011;9718;52.200;21.052;2022-12-05T17:25:54;32.93;;;15.30;;
19171;SDS011;9718;52.200;21.052;2022-12-05T17:28:23;32.33;;;15.87;;
19171;SDS011;9718;52.200;21.052;2022-12-05T17:30:50;35.80;;;15.23;;
19171;SDS011;9718;52.200;21.052;2022-12-05T17:33:18;31.47;;;14.87;;
19171;SDS011;9718;52.200;21.052;2022-12-05T17:35:45;32.57;;;14.70;;
19171;SDS011;9718;52.200;21.052;2022-12-05T17:38:12;32.23;;;14.53;;
19171;SDS011;9718;52.200;21.052;2022-12-05T17:40:40;36.23;;;15.03;;
19171;SDS011;9718;52.200;21.052;2022-12-05T17:43:09;29.00;;;14.27;;
19171;SDS011;9718;52.200;21.052;2022-12-05T17:45:39;29.07;;;14.77;;
19171;SDS011;9718;52.200;21.052;2022-12-05T17:48:10;26.07;;;13.73;;
19171;SDS011;9718;52.200;21.052;2022-12-05T17:50:39;34.73;;;14.67;;
19171;SDS011;9718;52.200;21.052;2022-12-05T17:53:12;27.67;;;14.43;;
19171;SDS011;9718;52.200;21.052;2022-12-05T17:55:43;28.37;;;14.10;;
19171;SDS011;9718;52.200;21.052;2022-12-05T17:58:14;31.10;;;14.53;;
19171;SDS011;9718;52.200;21.052;2022-12-05T18:00:42;28.80;;;14.23;;
19171;SDS011;9718;52.200;21.052;2022-12-05T18:03:14;34.93;;;15.73;;
19171;SDS011;9718;52.200;21.052;2022-12-05T18:05:42;30.97;;;15.67;;
19171;SDS011;9718;52.200;21.052;2022-12-05T18:08:10;29.53;;;13.80;;
19171;SDS011;9718;52.200;21.052;2022-12-05T18:10:44;33.17;;;14.20;;
19171;SDS011;9718;52.200;21.052;2022-12-05T18:13:13;33.83;;;15.60;;
19171;SDS011;9718;52.200;21.052;2022-12-05T18:15:41;31.40;;;14.63;;
19171;SDS011;9718;52.200;21.052;2022-12-05T18:18:11;29.30;;;14.77;;
19171;SDS011;9718;52.200;21.052;2022-12-05T18:20:40;28.23;;;14.13;;
19171;SDS011;9718;52.200;21.052;2022-12-05T18:23:07;29.13;;;14.50;;
19171;SDS011;9718;52.200;21.052;2022-12-05T18:25:34;25.23;;;14.63;;
19171;SDS011;9718;52.200;21.052;2022-12-05T18:28:02;29.00;;;15.73;;
19171;SDS011;9718;52.200;21.052;2022-12-05T18:30:29;28.07;;;14.50;;
19171;SDS011;9718;52.200;21.052;2022-12-05T18:32:56;26.33;;;13.33;;
19171;SDS011;9718;52.200;21.052;2022-12-05T18:35:23;32.60;;;15.27;;
19171;SDS011;9718;52.200;21.052;2022-12-05T18:38:06;27.77;;;14.60;;
19171;SDS011;9718;52.200;21.052;2022-12-05T18:40:36;33.50;;;15.77;;
19171;SDS011;9718;52.200;21.052;2022-12-05T18:43:03;29.87;;;14.97;;
19171;SDS011;9718;52.200;21.052;2022-12-05T18:45:30;29.87;;;13.97;;
19171;SDS011;9718;52.200;21.052;2022-12-05T18:47:58;28.50;;;14.30;;
19171;SDS011;9718;52.200;21.052;2022-12-05T18:50:46;32.27;;;14.83;;
19171;SDS011;9718;52.200;21.052;2022-12-05T18:53:13;32.70;;;15.13;;
19171;SDS011;9718;52.200;21.052;2022-12-05T18:55:40;30.23;;;14.87;;